Airfield :
LOGIN :

Register | Disclaimer

   EN    FR    IT 

 










Legend :    VFR   Marginal VFR   IFR   Intensive IFR   Very Intensive IFR
Visi :
Ceiling :
>= 8 km
>= 3000ft
5 to 8 km
1000 to 3000 ft
1500m to 5 km
500 to 1000 ft
800 to 1500m
200 to 500 ft
< 800m
< 200 ft
Symbols :   Thunderstorms  Fog  Heavy snow  Heavy precipitations  Wind > 20 kt
SIGMETs :     Misc.  Thunderstorms  Icing  Turbulence  Mountain Waves  Volcanic Ashes






- Airport Elevation : 796 ft
- IATA code : SYT


LFLN - Saint-Yan

CURRENT METAR :
  • 071530Z AUTO 30004KT 250V360 CAVOK 15/05 Q1019 NOSIG

EXPIRED METARs :
  • 071500Z AUTO 32005KT 250V360 CAVOK 14/06 Q1019 NOSIG
  • 071430Z AUTO 30007KT 260V340 9999 FEW039 BKN060 14/06 Q1019 NOSIG
  • 071400Z AUTO 28006KT 250V330 9999 FEW038 OVC058 15/07 Q1019 TEMPO SCT030TCU
  • 071330Z AUTO 28007KT 220V330 9999 FEW035 BKN058 14/06 Q1019 TEMPO SCT030TCU
  • 071300Z AUTO 28007KT 240V310 9999 FEW031 SCT043 OVC054 13/06 Q1019 TEMPO SCT030TCU
  • 071230Z AUTO 28007KT 240V320 9999 BKN031 BKN039 BKN046 13/06 Q1019 TEMPO SCT030TCU

TAF TAF LFLN
Valid from the 07 at 15:00 until the 08 at 00:00 UTC


071400Z 0715/0724 29008KT 9999 FEW040



MET'MAP, your aeronautical weather chart ! - Copyright ORBIFLY December 2007 - Disclaimer

ORBIFLY MET'MAP TEAM :

Programming & Development : Alexandra Zaïnal
Concept & original design : Baudouin d'Aumeries
Assistance for programming : Marc-Olivier Méhu
Technical & hardware support : Manuel Goepfert

Contact : metmap@orbifly.com




SOURCES & CREDITS :

   NOAA